Time;durP1;ratioP1;P1;durP2;ratioP2;P2;SDS_P1;SDS_P2;PMS_P1;PMS_P2;Temp;Humidity;BMP_temperature;BMP_pressure;BME280_temperature;BME280_humidity;BME280_pressure;Samples;Min_cycle;Max_cycle;Signal;HPM_P1;HPM_P2
2021/07/03 00:00:24;;;;;;;10.50;7.10;;;;;;;12.49;91.79;98922.59;4971067;28;20455;-68
2021/07/03 00:02:49;;;;;;;12.35;7.90;;;;;;;12.47;92.70;98924.69;4968108;28;20023;-69
2021/07/03 00:05:14;;;;;;;11.25;6.75;;;;;;;12.43;92.52;98911.75;4973156;28;20027;-68
2021/07/03 00:07:40;;;;;;;13.25;7.43;;;;;;;12.47;93.51;98921.13;4973067;28;20030;-69
2021/07/03 00:10:06;;;;;;;15.10;7.03;;;;;;;12.49;93.06;98919.88;4975308;28;20477;-68
2021/07/03 00:12:32;;;;;;;12.18;7.93;;;;;;;12.51;93.23;98922.38;4973455;28;20038;-68
2021/07/03 00:14:58;;;;;;;13.88;7.65;;;;;;;12.49;93.65;98919.03;4973513;28;20037;-68
2021/07/03 00:17:23;;;;;;;11.40;7.18;;;;;;;12.52;93.12;98928.63;4975071;28;20413;-68
2021/07/03 00:19:48;;;;;;;11.13;7.22;;;;;;;12.44;92.74;98933.28;4972694;28;20033;-69
2021/07/03 00:22:14;;;;;;;13.18;7.28;;;;;;;12.37;93.40;98934.34;4973693;28;20030;-69
2021/07/03 00:24:39;;;;;;;15.25;7.15;;;;;;;12.33;93.47;98933.91;4979702;28;20480;-68
2021/07/03 00:27:05;;;;;;;13.88;7.78;;;;;;;12.28;93.40;98931.00;4971689;28;20023;-68
2021/07/03 00:29:30;;;;;;;11.40;6.85;;;;;;;12.22;93.62;98935.38;4977831;28;20037;-68
2021/07/03 00:31:55;;;;;;;10.80;7.10;;;;;;;12.20;93.66;98928.50;4960340;28;20031;-68
2021/07/03 00:34:21;;;;;;;11.00;6.97;;;;;;;12.22;93.67;98913.69;4978264;28;20489;-68
2021/07/03 00:36:47;;;;;;;11.55;6.95;;;;;;;12.29;92.75;98929.97;4976444;28;20022;-68
2021/07/03 00:39:12;;;;;;;10.82;7.03;;;;;;;12.19;92.89;98903.25;4975875;28;20027;-69
2021/07/03 00:41:37;;;;;;;11.13;7.05;;;;;;;12.25;93.15;98929.53;4976261;28;20038;-68
2021/07/03 00:44:03;;;;;;;11.23;6.88;;;;;;;12.21;93.44;98916.63;4976437;28;20031;-69
2021/07/03 00:46:28;;;;;;;12.20;7.30;;;;;;;12.25;93.67;98920.56;4974574;28;20019;-69
2021/07/03 00:48:53;;;;;;;14.93;7.22;;;;;;;12.18;93.65;98911.59;4973770;28;20472;-69
2021/07/03 00:51:19;;;;;;;11.90;7.20;;;;;;;12.19;93.34;98914.09;4972850;28;20409;-68
2021/07/03 00:53:44;;;;;;;11.55;7.00;;;;;;;12.18;92.85;98922.44;4972962;28;20034;-69
2021/07/03 00:56:10;;;;;;;12.32;7.13;;;;;;;12.09;93.19;98900.16;4971041;28;20029;-68
2021/07/03 00:58:35;;;;;;;11.32;6.65;;;;;;;12.28;93.03;98918.25;4974154;28;20499;-69
2021/07/03 01:01:00;;;;;;;10.82;6.85;;;;;;;12.28;92.50;98917.41;4971644;28;20524;-69
2021/07/03 01:03:26;;;;;;;12.00;6.82;;;;;;;12.18;93.20;98911.59;4973160;28;20027;-68
2021/07/03 01:05:52;;;;;;;12.73;7.03;;;;;;;12.19;93.37;98918.72;4973787;28;20038;-68
2021/07/03 01:08:18;;;;;;;13.48;7.13;;;;;;;12.06;93.41;98909.53;4973871;28;20123;-69
2021/07/03 01:10:44;;;;;;;9.88;6.57;;;;;;;12.01;93.89;98911.22;4972425;28;20027;-69
2021/07/03 01:13:10;;;;;;;10.27;6.85;;;;;;;12.05;94.65;98924.16;4973454;28;20081;-70
2021/07/03 01:15:36;;;;;;;11.77;7.90;;;;;;;11.95;93.91;98893.09;4973142;28;20062;-69
2021/07/03 01:18:02;;;;;;;11.13;6.82;;;;;;;12.06;93.56;98912.25;4972324;28;20050;-69
2021/07/03 01:20:27;;;;;;;11.30;7.30;;;;;;;12.07;93.50;98916.63;4972780;28;20031;-69
2021/07/03 01:22:53;;;;;;;12.00;7.97;;;;;;;12.00;94.93;98925.81;4973590;28;20069;-69
2021/07/03 01:25:18;;;;;;;15.88;8.48;;;;;;;11.72;95.17;98891.59;4988329;28;20031;-69
2021/07/03 01:27:59;;;;;;;14.27;8.52;;;;;;;11.73;95.95;98908.69;4972353;28;20121;-69
2021/07/03 01:30:25;;;;;;;16.45;7.90;;;;;;;11.71;96.07;98908.03;4971704;28;20558;-69
2021/07/03 01:32:50;;;;;;;12.45;7.85;;;;;;;11.73;96.13;98930.38;4973398;28;20023;-69
2021/07/03 01:35:15;;;;;;;14.48;7.97;;;;;;;11.92;95.30;98924.16;4973438;28;20030;-70
2021/07/03 01:37:40;;;;;;;12.45;7.40;;;;;;;11.92;95.11;98921.44;4973649;28;20472;-69
2021/07/03 01:40:07;;;;;;;12.25;7.25;;;;;;;11.89;95.20;98902.84;4972392;28;20106;-69
2021/07/03 01:42:32;;;;;;;11.35;7.70;;;;;;;11.95;94.73;98906.63;4973082;28;20495;-70
2021/07/03 01:44:57;;;;;;;13.77;7.10;;;;;;;12.00;95.20;98912.28;4972930;28;20038;-69
2021/07/03 01:47:23;;;;;;;11.85;7.15;;;;;;;12.11;94.57;98914.34;4972632;28;20023;-69
2021/07/03 01:49:48;;;;;;;11.38;7.15;;;;;;;12.13;93.96;98905.97;4972573;28;20033;-69
2021/07/03 01:52:15;;;;;;;13.98;7.57;;;;;;;12.11;93.79;98899.94;4970922;28;20062;-67
2021/07/03 01:54:41;;;;;;;12.23;7.32;;;;;;;12.10;93.90;98909.09;4973221;28;20536;-67
2021/07/03 01:57:06;;;;;;;11.25;7.63;;;;;;;11.97;93.88;98910.81;4972603;28;20025;-69
2021/07/03 01:59:32;;;;;;;11.18;6.68;;;;;;;12.03;94.12;98903.72;4972706;28;20093;-69
2021/07/03 02:02:00;;;;;;;13.38;7.68;;;;;;;12.13;93.93;98908.69;4972079;28;20796;-69
2021/07/03 02:04:26;;;;;;;14.32;7.75;;;;;;;11.94;94.03;98900.34;4969927;28;20425;-69
2021/07/03 02:06:52;;;;;;;12.82;8.10;;;;;;;11.88;94.86;98906.63;4971235;28;20027;-69
2021/07/03 02:09:18;;;;;;;15.25;8.07;;;;;;;11.77;94.81;98907.22;4971653;28;20456;-69
2021/07/03 02:11:44;;;;;;;12.85;7.78;;;;;;;11.87;95.63;98918.53;4972770;28;20055;-70
2021/07/03 02:14:10;;;;;;;17.42;7.65;;;;;;;11.79;95.29;98907.88;4974433;28;20106;-69
2021/07/03 02:16:35;;;;;;;13.13;7.15;;;;;;;11.73;95.20;98908.69;4978245;28;20034;-69
2021/07/03 02:19:02;;;;;;;15.20;7.03;;;;;;;11.46;95.62;98884.28;4978540;28;20030;-69
2021/07/03 02:21:28;;;;;;;13.60;8.00;;;;;;;11.71;95.69;98913.47;4978443;28;20097;-69
2021/07/03 02:23:53;;;;;;;14.15;8.07;;;;;;;11.76;95.51;98913.69;4978352;28;20384;-67
2021/07/03 02:26:20;;;;;;;11.55;6.80;;;;;;;11.76;95.98;98916.38;4981339;28;20018;-67
2021/07/03 02:28:46;;;;;;;12.68;7.25;;;;;;;11.92;94.93;98917.88;4979276;28;20036;-67
2021/07/03 02:31:11;;;;;;;11.82;7.50;;;;;;;11.75;95.28;98912.03;4978254;28;20034;-67
2021/07/03 02:33:36;;;;;;;15.50;7.90;;;;;;;11.74;95.71;98911.19;4978952;28;20111;-68
2021/07/03 02:36:02;;;;;;;13.10;7.65;;;;;;;11.86;95.11;98916.84;4979164;28;20137;-67
2021/07/03 02:38:27;;;;;;;11.35;6.40;;;;;;;11.81;93.91;98911.19;4978783;28;20039;-67
2021/07/03 02:40:53;;;;;;;10.30;6.90;;;;;;;11.69;93.82;98919.13;4978729;28;20027;-67
2021/07/03 02:43:18;;;;;;;10.52;6.18;;;;;;;11.40;94.20;98907.63;4979192;28;20038;-67
2021/07/03 02:45:43;;;;;;;11.52;6.97;;;;;;;11.33;94.34;98919.47;4978660;28;20027;-68
2021/07/03 02:48:08;;;;;;;12.18;6.88;;;;;;;11.15;94.69;98904.63;4978010;28;20023;-69
2021/07/03 02:50:34;;;;;;;13.85;6.80;;;;;;;11.24;96.08;98920.69;4978632;28;20395;-67
2021/07/03 02:52:59;;;;;;;14.80;7.60;;;;;;;11.23;96.44;98919.03;4978830;28;20047;-68
2021/07/03 02:55:25;;;;;;;12.73;7.70;;;;;;;11.31;97.14;98924.25;4977696;28;20026;-68
2021/07/03 02:57:50;;;;;;;12.52;6.85;;;;;;;11.48;96.43;98914.72;4978916;28;20570;-67
2021/07/03 03:00:17;;;;;;;13.02;7.45;;;;;;;11.48;96.47;98924.72;4980421;28;20031;-67
2021/07/03 03:02:42;;;;;;;13.55;7.65;;;;;;;11.53;95.79;98914.94;4980458;28;20026;-68
2021/07/03 03:05:10;;;;;;;11.75;6.72;;;;;;;11.55;95.54;98918.28;4978539;28;20026;-67
2021/07/03 03:07:37;;;;;;;19.63;7.30;;;;;;;11.64;95.30;98927.03;4977842;28;20026;-68
2021/07/03 03:10:05;;;;;;;14.02;7.40;;;;;;;11.46;95.20;98919.50;4968035;28;20066;-67
2021/07/03 03:12:30;;;;;;;11.48;7.05;;;;;;;11.36;95.83;98910.94;4978128;28;20496;-67
2021/07/03 03:14:56;;;;;;;13.32;6.72;;;;;;;11.30;95.61;98919.91;4978843;28;20026;-67
2021/07/03 03:17:21;;;;;;;16.20;7.78;;;;;;;11.13;95.59;98904.03;4979003;28;20031;-67
2021/07/03 03:19:46;;;;;;;15.10;7.00;;;;;;;11.19;96.58;98924.03;4978241;28;20054;-67
2021/07/03 03:22:12;;;;;;;12.98;7.38;;;;;;;11.17;96.82;98926.09;4977829;28;20046;-68
2021/07/03 03:24:37;;;;;;;10.98;6.63;;;;;;;11.17;95.59;98916.09;4978571;28;20069;-67
2021/07/03 03:27:02;;;;;;;13.40;6.97;;;;;;;11.16;96.34;98914.44;4975248;28;20089;-67
2021/07/03 03:29:28;;;;;;;12.40;7.32;;;;;;;11.18;96.91;98909.63;4972363;28;20035;-68
2021/07/03 03:31:53;;;;;;;12.18;7.45;;;;;;;11.11;96.57;98897.97;4974443;28;20030;-67
2021/07/03 03:34:18;;;;;;;14.13;7.72;;;;;;;11.15;96.34;98904.63;4975582;28;20018;-67
2021/07/03 03:36:44;;;;;;;13.77;8.02;;;;;;;11.30;96.89;98896.34;4975595;28;20477;-68
2021/07/03 03:39:09;;;;;;;10.65;7.38;;;;;;;11.27;96.73;98879.69;4975162;28;20058;-67
2021/07/03 03:41:34;;;;;;;13.55;8.07;;;;;;;11.18;95.92;98874.44;4975200;28;20030;-67
2021/07/03 03:43:59;;;;;;;13.82;8.15;;;;;;;11.26;96.62;98884.25;4975359;28;20477;-67
2021/07/03 03:46:25;;;;;;;14.48;7.43;;;;;;;11.26;96.42;98880.72;4974355;28;20034;-67
2021/07/03 03:48:50;;;;;;;12.40;7.22;;;;;;;11.30;95.78;98904.47;4973596;28;20031;-69
2021/07/03 03:51:15;;;;;;;15.05;8.40;;;;;;;11.20;95.95;98871.53;4975234;28;20062;-67
2021/07/03 03:53:41;;;;;;;10.77;7.10;;;;;;;11.51;96.06;98898.03;4975418;28;20389;-67
2021/07/03 03:56:06;;;;;;;10.38;6.72;;;;;;;11.24;95.07;98871.94;4973913;28;20026;-69
2021/07/03 03:58:31;;;;;;;10.05;6.03;;;;;;;11.54;93.70;98889.50;4962921;28;20031;-67
2021/07/03 04:00:57;;;;;;;10.52;5.80;;;;;;;11.57;92.21;98886.38;4957401;28;20393;-67
2021/07/03 04:03:22;;;;;;;8.05;5.30;;;;;;;11.65;91.35;98890.75;4974825;28;20109;-67
2021/07/03 04:05:47;;;;;;;11.15;5.88;;;;;;;11.56;91.15;98892.00;4973734;28;20103;-67
2021/07/03 04:08:12;;;;;;;13.65;6.82;;;;;;;11.55;92.01;98898.44;4973811;28;20477;-67
2021/07/03 04:10:38;;;;;;;10.02;5.90;;;;;;;11.50;92.05;98899.09;4974840;28;20042;-68
2021/07/03 04:13:04;;;;;;;11.68;6.95;;;;;;;11.44;92.48;98901.78;4972244;28;20074;-67
2021/07/03 04:15:29;;;;;;;14.68;7.47;;;;;;;11.41;93.42;98895.72;4974579;28;20030;-67
2021/07/03 04:17:54;;;;;;;14.23;7.78;;;;;;;11.44;93.66;98904.50;4974219;28;20022;-67
2021/07/03 04:20:20;;;;;;;12.73;7.28;;;;;;;11.46;93.96;98908.66;4974902;28;20031;-71
2021/07/03 04:22:45;;;;;;;11.70;6.68;;;;;;;11.58;93.33;98884.47;4968754;28;20029;-68
2021/07/03 04:25:12;;;;;;;9.15;6.28;;;;;;;11.69;92.08;98908.28;4972289;28;20027;-68
2021/07/03 04:27:39;;;;;;;10.73;6.32;;;;;;;11.86;91.31;98903.28;4968063;28;20030;-67
2021/07/03 04:30:06;;;;;;;13.38;6.95;;;;;;;11.79;91.59;98907.88;4970071;28;20636;-67
2021/07/03 04:32:32;;;;;;;14.95;6.88;;;;;;;11.83;91.33;98909.09;4963060;28;20041;-68
2021/07/03 04:34:57;;;;;;;15.05;7.03;;;;;;;11.84;91.44;98902.63;4961502;28;20126;-69
2021/07/03 04:37:22;;;;;;;10.25;6.55;;;;;;;11.75;90.74;98863.22;4964896;28;20023;-70
2021/07/03 04:39:47;;;;;;;10.75;6.45;;;;;;;12.21;89.73;98913.91;4970847;28;20049;-69
2021/07/03 04:42:13;;;;;;;12.52;7.07;;;;;;;12.29;88.67;98913.69;4960295;28;20547;-68
2021/07/03 04:44:38;;;;;;;10.10;6.32;;;;;;;12.40;88.32;98909.47;4971420;28;20038;-71
2021/07/03 04:47:03;;;;;;;11.02;5.40;;;;;;;12.63;88.11;98914.44;4973948;28;20369;-70
2021/07/03 04:49:32;;;;;;;9.00;5.90;;;;;;;12.72;86.91;98907.69;4974350;28;20420;-70
2021/07/03 04:51:59;;;;;;;10.23;6.40;;;;;;;12.96;86.41;98913.44;4973757;28;20026;-70
2021/07/03 04:54:24;;;;;;;7.50;5.32;;;;;;;13.08;85.65;98904.41;4974057;28;20518;-70
2021/07/03 04:56:49;;;;;;;11.80;5.72;;;;;;;13.25;84.93;98903.88;5027203;23;20141;-71
2021/07/03 04:59:15;;;;;;;9.48;5.95;;;;;;;13.36;84.04;98887.78;4992177;28;20424;-71
2021/07/03 05:01:40;;;;;;;8.15;5.90;;;;;;;13.55;84.28;98917.75;4992770;28;20030;-70
2021/07/03 05:04:05;;;;;;;10.93;6.50;;;;;;;13.56;84.48;98909.34;4993135;28;20073;-71
2021/07/03 05:06:31;;;;;;;10.93;6.55;;;;;;;13.74;83.47;98892.28;4992813;28;20045;-71
2021/07/03 05:08:56;;;;;;;10.82;5.90;;;;;;;13.87;82.27;98904.13;4989272;28;20034;-70
2021/07/03 05:11:21;;;;;;;9.43;6.32;;;;;;;14.02;82.02;98907.34;4988564;28;20038;-71
2021/07/03 05:13:47;;;;;;;10.57;6.60;;;;;;;14.12;82.84;98895.94;4992260;28;20019;-70
2021/07/03 05:16:12;;;;;;;8.73;5.88;;;;;;;14.31;82.39;98883.19;4992857;28;20117;-72
2021/07/03 05:18:37;;;;;;;10.98;6.07;;;;;;;14.71;80.72;98893.66;4992874;28;20105;-70
2021/07/03 05:21:03;;;;;;;8.68;6.35;;;;;;;14.86;78.98;98894.09;4992712;28;20027;-69
2021/07/03 05:23:28;;;;;;;10.43;6.35;;;;;;;14.89;78.25;98886.28;4993913;28;20034;-72
2021/07/03 05:25:54;;;;;;;11.25;5.88;;;;;;;14.87;78.80;98887.59;4991231;28;20495;-70
2021/07/03 05:28:20;;;;;;;11.45;5.78;;;;;;;15.06;77.45;98881.06;4992389;28;20041;-72
2021/07/03 05:30:48;;;;;;;9.45;6.22;;;;;;;14.97;77.10;98879.72;4989816;28;20030;-76
2021/07/03 05:33:14;;;;;;;9.52;6.20;;;;;;;15.07;77.72;98896.34;4994307;28;20086;-77
2021/07/03 05:35:40;;;;;;;10.25;6.00;;;;;;;15.02;77.35;98868.94;4995372;28;20145;-77
2021/07/03 05:38:06;;;;;;;12.95;6.97;;;;;;;15.34;76.72;98893.25;4995766;28;20050;-76
2021/07/03 05:40:31;;;;;;;11.15;6.45;;;;;;;15.44;76.40;98898.13;4991349;28;20026;-69
2021/07/03 05:42:56;;;;;;;11.75;5.90;;;;;;;15.74;75.52;98885.28;4987301;28;20042;-68
2021/07/03 05:45:22;;;;;;;10.13;5.63;;;;;;;15.82;75.25;98859.56;4990445;28;20472;-68
2021/07/03 05:47:51;;;;;;;8.43;5.50;;;;;;;16.20;74.61;98891.84;4990873;28;20468;-67
2021/07/03 05:50:25;;;;;;;11.10;5.85;;;;;;;16.44;74.02;98889.13;4990472;28;20064;-69
2021/07/03 05:52:51;;;;;;;10.07;5.88;;;;;;;16.50;74.22;98890.03;4989646;28;20026;-69
2021/07/03 05:55:17;;;;;;;11.90;6.13;;;;;;;16.86;73.22;98878.00;4991121;28;20492;-68
2021/07/03 05:57:43;;;;;;;9.40;5.85;;;;;;;17.11;72.94;98868.63;4984272;28;20022;-72
2021/07/03 06:00:11;;;;;;;12.05;5.90;;;;;;;17.28;72.04;98867.59;4984321;28;20064;-72
2021/07/03 06:02:36;;;;;;;7.32;5.00;;;;;;;17.88;71.42;98887.28;4986548;28;20045;-71
2021/07/03 06:05:02;;;;;;;10.32;6.03;;;;;;;17.98;71.08;98864.72;4991349;28;20105;-73
2021/07/03 06:07:28;;;;;;;7.90;5.28;;;;;;;18.05;70.66;98847.03;4992003;28;20030;-73
2021/07/03 06:09:53;;;;;;;9.30;6.25;;;;;;;18.44;70.99;98862.63;4992225;28;20146;-74
2021/07/03 06:12:19;;;;;;;7.75;5.55;;;;;;;18.75;71.01;98856.50;4991022;28;20022;-73
2021/07/03 06:14:45;;;;;;;7.70;5.65;;;;;;;18.89;68.05;98856.97;4992235;28;20024;-73
2021/07/03 06:17:13;;;;;;;10.05;5.72;;;;;;;19.20;67.17;98846.31;4989612;28;20022;-74
2021/07/03 06:19:39;;;;;;;7.97;5.63;;;;;;;19.59;66.94;98876.31;4988395;28;20030;-73
2021/07/03 06:22:05;;;;;;;10.65;5.35;;;;;;;19.53;65.71;98850.75;5004563;28;20473;-73
2021/07/03 06:24:30;;;;;;;10.45;5.80;;;;;;;19.83;64.27;98866.69;4988241;28;20030;-73
2021/07/03 06:26:55;;;;;;;8.25;5.45;;;;;;;19.74;65.13;98854.53;4989034;28;20030;-74
2021/07/03 06:29:21;;;;;;;5.65;4.47;;;;;;;19.46;63.93;98852.88;4987350;28;20033;-73
2021/07/03 06:31:46;;;;;;;7.20;5.32;;;;;;;19.99;60.83;98848.41;4982721;28;20157;-73
2021/07/03 06:34:12;;;;;;;10.77;5.55;;;;;;;19.97;59.93;98834.13;4982845;28;20057;-73
2021/07/03 06:36:37;;;;;;;6.85;4.80;;;;;;;20.28;58.54;98853.56;4988558;28;20056;-73
2021/07/03 06:39:03;;;;;;;11.02;5.10;;;;;;;20.53;58.75;98842.66;4988468;28;20056;-74
2021/07/03 06:41:28;;;;;;;6.60;4.57;;;;;;;20.90;56.08;98852.75;4986631;28;20030;-73
2021/07/03 06:43:53;;;;;;;7.32;5.00;;;;;;;20.58;54.94;98822.66;4989468;28;20022;-71
2021/07/03 06:46:19;;;;;;;7.35;4.70;;;;;;;20.92;55.31;98850.56;4987404;28;20117;-72
2021/07/03 06:48:44;;;;;;;7.30;5.40;;;;;;;21.30;53.96;98842.13;4986001;28;20022;-72
2021/07/03 06:51:09;;;;;;;7.22;4.60;;;;;;;21.66;52.79;98851.28;4984070;28;20058;-71
2021/07/03 06:53:35;;;;;;;5.53;4.50;;;;;;;21.89;52.18;98825.94;4994702;28;20448;-71
2021/07/03 06:56:01;;;;;;;7.10;4.55;;;;;;;22.34;50.51;98852.91;4991006;28;20081;-70
2021/07/03 06:58:26;;;;;;;6.00;4.05;;;;;;;22.49;50.77;98848.19;4986258;28;20030;-71
2021/07/03 07:00:52;;;;;;;6.43;4.80;;;;;;;23.09;49.67;98852.94;4993809;28;20028;-70
2021/07/03 07:03:17;;;;;;;7.07;4.43;;;;;;;23.71;47.82;98837.59;4993074;28;20395;-72
2021/07/03 07:05:42;;;;;;;7.80;4.85;;;;;;;24.27;46.46;98842.63;5000904;28;20068;-72
2021/07/03 07:08:07;;;;;;;8.63;4.53;;;;;;;25.20;43.96;98849.84;4998963;28;20399;-70
2021/07/03 07:10:33;;;;;;;9.20;4.00;;;;;;;25.98;42.84;98845.63;4995139;28;20023;-71
2021/07/03 07:13:04;;;;;;;8.18;4.13;;;;;;;26.86;40.74;98840.06;4993721;28;20448;-71
2021/07/03 07:15:29;;;;;;;8.25;4.20;;;;;;;27.87;38.30;98829.72;4994640;28;20073;-71
2021/07/03 07:17:55;;;;;;;6.65;4.57;;;;;;;29.68;35.67;98844.59;4996028;28;20049;-73
2021/07/03 07:20:20;;;;;;;6.13;4.50;;;;;;;30.00;35.52;98842.44;4994240;28;20491;-71
2021/07/03 07:22:45;;;;;;;5.45;4.43;;;;;;;28.88;37.28;98836.44;4995048;28;20030;-73
2021/07/03 07:25:11;;;;;;;7.38;4.68;;;;;;;29.61;34.91;98824.75;4995124;28;20037;-73
2021/07/03 07:27:37;;;;;;;11.00;4.32;;;;;;;30.43;34.12;98817.22;4995355;28;20033;-70
2021/07/03 07:30:03;;;;;;;5.95;4.25;;;;;;;30.63;33.89;98823.19;4994656;28;20037;-69
2021/07/03 07:32:29;;;;;;;6.78;4.55;;;;;;;30.57;34.93;98814.19;4996218;28;20096;-69
2021/07/03 07:34:54;;;;;;;6.53;4.82;;;;;;;30.87;34.03;98820.66;4995932;28;20527;-70
2021/07/03 07:37:19;;;;;;;5.75;4.20;;;;;;;31.42;32.98;98811.25;4992473;28;20026;-70
2021/07/03 07:39:45;;;;;;;7.00;4.80;;;;;;;31.82;33.35;98807.91;4992641;28;20030;-72
2021/07/03 07:42:10;;;;;;;6.13;4.35;;;;;;;32.51;32.35;98811.97;4994063;28;20034;-67
2021/07/03 07:44:35;;;;;;;8.02;4.72;;;;;;;33.70;30.74;98813.69;4991956;28;20076;-68
2021/07/03 07:47:01;;;;;;;5.45;4.20;;;;;;;32.00;33.04;98819.78;4993718;28;20022;-67
2021/07/03 07:49:26;;;;;;;7.35;5.05;;;;;;;30.94;34.52;98811.72;4994201;28;20403;-69
2021/07/03 07:51:51;;;;;;;5.05;4.28;;;;;;;31.42;32.65;98818.81;4994416;28;20132;-70
2021/07/03 07:54:17;;;;;;;6.45;4.60;;;;;;;30.56;34.01;98806.97;4993305;28;20033;-70
2021/07/03 07:56:42;;;;;;;8.40;4.90;;;;;;;30.23;35.05;98793.66;4991251;28;20026;-69
2021/07/03 07:59:07;;;;;;;6.10;4.93;;;;;;;29.10;37.48;98818.00;4990634;28;20158;-70
2021/07/03 08:01:32;;;;;;;7.88;4.47;;;;;;;30.80;35.26;98790.41;4990602;28;20050;-70
2021/07/03 08:03:58;;;;;;;10.23;5.55;;;;;;;31.86;33.94;98800.47;4991021;28;20402;-70
2021/07/03 08:06:23;;;;;;;10.88;5.18;;;;;;;32.03;33.42;98805.09;4990347;28;20030;-69
2021/07/03 08:08:48;;;;;;;6.50;4.35;;;;;;;31.96;32.93;98810.41;4992936;28;20026;-70
2021/07/03 08:11:14;;;;;;;6.93;4.50;;;;;;;33.25;30.89;98797.91;4983071;28;20018;-71
2021/07/03 08:13:39;;;;;;;5.97;4.18;;;;;;;32.64;31.00;98795.16;4993514;28;20030;-72
2021/07/03 08:16:04;;;;;;;8.50;4.40;;;;;;;33.36;30.54;98806.63;4994158;28;20026;-71
2021/07/03 08:18:30;;;;;;;7.45;4.10;;;;;;;35.10;28.17;98790.00;4992826;28;20113;-71
2021/07/03 08:20:55;;;;;;;6.60;4.07;;;;;;;35.36;27.90;98801.81;4994121;28;20109;-71
2021/07/03 08:23:21;;;;;;;6.18;4.35;;;;;;;35.25;27.10;98785.53;4992384;28;20022;-71
2021/07/03 08:25:48;;;;;;;6.35;3.40;;;;;;;34.97;26.83;98790.47;4992645;28;20030;-71
2021/07/03 08:28:13;;;;;;;6.05;3.90;;;;;;;34.35;27.55;98764.88;4993659;28;20068;-71
2021/07/03 08:30:38;;;;;;;5.43;3.50;;;;;;;36.07;26.30;98782.78;4994161;28;20030;-71
2021/07/03 08:33:04;;;;;;;5.93;3.60;;;;;;;35.69;26.95;98782.44;4992519;28;20037;-71
2021/07/03 08:35:29;;;;;;;5.25;3.78;;;;;;;35.33;25.98;98784.50;4994567;28;20054;-71
2021/07/03 08:37:54;;;;;;;4.75;3.45;;;;;;;36.34;25.47;98778.84;4993523;28;20377;-71
2021/07/03 08:40:21;;;;;;;4.30;3.40;;;;;;;35.76;26.71;98764.88;4995918;28;20038;-72
2021/07/03 08:42:46;;;;;;;4.43;3.70;;;;;;;34.95;27.17;98775.97;4992661;28;20125;-71
2021/07/03 08:45:12;;;;;;;4.70;3.80;;;;;;;36.20;25.87;98767.31;4996837;28;20034;-71
2021/07/03 08:47:42;;;;;;;4.03;3.47;;;;;;;36.68;25.21;98767.75;4996585;28;20023;-71
2021/07/03 08:50:10;;;;;;;6.38;3.88;;;;;;;36.26;26.49;98770.63;4997448;28;20468;-70
2021/07/03 08:52:35;;;;;;;6.13;3.20;;;;;;;36.06;25.62;98764.22;4997459;28;20495;-71
2021/07/03 08:55:00;;;;;;;4.65;3.60;;;;;;;36.10;26.01;98776.38;4996071;28;20037;-68
2021/07/03 08:57:26;;;;;;;5.10;3.43;;;;;;;34.72;27.31;98767.44;4996277;28;20022;-73
2021/07/03 08:59:58;;;;;;;5.05;3.45;;;;;;;35.22;26.97;98760.94;4995177;28;20352;-72
2021/07/03 09:02:39;;;;;;;5.85;3.40;;;;;;;36.51;24.70;98754.16;4992352;28;20571;-73
2021/07/03 09:05:16;;;;;;;3.60;2.90;;;;;;;36.38;25.20;98759.97;4994166;28;20030;-72
2021/07/03 09:07:42;;;;;;;4.72;3.58;;;;;;;35.50;27.64;98760.75;4990950;28;20054;-71
2021/07/03 09:10:08;;;;;;;4.00;2.97;;;;;;;36.47;26.40;98751.25;4992586;28;20073;-71
2021/07/03 09:12:35;;;;;;;6.53;3.50;;;;;;;35.03;27.64;98746.81;4992480;28;20041;-71
2021/07/03 09:15:10;;;;;;;5.45;3.25;;;;;;;37.11;25.10;98745.81;4990672;28;20026;-70
2021/07/03 09:17:50;;;;;;;8.85;3.72;;;;;;;36.33;25.75;98748.22;4992635;28;20027;-72
2021/07/03 09:20:38;;;;;;;6.35;3.55;;;;;;;35.90;25.93;98753.88;4993127;28;20034;-71
2021/07/03 09:23:13;;;;;;;4.32;3.17;;;;;;;35.96;26.16;98735.50;4993969;28;20054;-71
2021/07/03 09:25:45;;;;;;;5.07;3.63;;;;;;;33.93;27.79;98740.09;4991912;28;20030;-71
2021/07/03 09:28:16;;;;;;;5.40;3.78;;;;;;;33.62;28.39;98716.44;4992154;28;20050;-71
2021/07/03 09:30:44;;;;;;;4.30;2.90;;;;;;;35.33;27.42;98744.28;4992737;28;20097;-71
2021/07/03 09:33:15;;;;;;;5.00;3.50;;;;;;;36.00;26.05;98738.38;4992282;28;20213;-71
2021/07/03 09:35:40;;;;;;;4.70;3.70;;;;;;;34.57;27.24;98726.91;4992562;28;20352;-71
2021/07/03 09:38:08;;;;;;;6.15;3.58;;;;;;;34.00;27.71;98737.50;4991398;28;20125;-71
2021/07/03 09:40:36;;;;;;;4.13;3.53;;;;;;;34.18;28.05;98730.38;4984989;28;20041;-71
2021/07/03 09:43:10;;;;;;;4.17;3.47;;;;;;;35.87;26.56;98715.22;4990325;28;20042;-71
2021/07/03 09:45:37;;;;;;;3.92;3.30;;;;;;;35.25;25.94;98709.56;4988985;28;20300;-72
2021/07/03 09:48:11;;;;;;;4.10;3.20;;;;;;;35.84;25.01;98723.59;4990278;28;20109;-71
2021/07/03 09:50:38;;;;;;;4.03;2.78;;;;;;;36.73;23.77;98730.75;4991508;28;20030;-71
2021/07/03 09:53:05;;;;;;;3.22;2.70;;;;;;;36.33;24.29;98743.38;4997968;28;20021;-71
2021/07/03 09:55:31;;;;;;;4.15;3.15;;;;;;;34.08;26.48;98728.09;4990764;28;20057;-71
2021/07/03 09:57:57;;;;;;;4.30;3.30;;;;;;;35.61;25.25;98720.75;4990656;28;20081;-71
2021/07/03 10:00:22;;;;;;;3.35;2.63;;;;;;;36.69;23.34;98710.16;4990542;28;20026;-71
2021/07/03 10:02:49;;;;;;;3.45;2.55;;;;;;;35.85;24.27;98722.41;4990340;28;20030;-71
2021/07/03 10:05:17;;;;;;;3.35;2.72;;;;;;;37.92;22.34;98716.94;4990513;28;20030;-71
2021/07/03 10:07:46;;;;;;;5.37;3.57;;;;;;;36.78;23.72;98710.69;4989138;28;20026;-72
2021/07/03 10:10:16;;;;;;;5.50;3.08;;;;;;;38.19;22.05;98693.38;4990405;28;20104;-71
2021/07/03 10:12:48;;;;;;;3.92;3.53;;;;;;;36.92;25.11;98703.63;4989937;28;20081;-73
2021/07/03 10:15:24;;;;;;;3.03;2.60;;;;;;;36.80;23.84;98677.28;4989318;28;20085;-73
2021/07/03 10:17:50;;;;;;;4.47;3.00;;;;;;;36.87;24.12;98692.69;4990786;28;20022;-72
2021/07/03 10:20:15;;;;;;;3.35;2.70;;;;;;;37.70;22.98;98695.31;4990468;28;20446;-72
2021/07/03 10:22:52;;;;;;;3.35;2.83;;;;;;;37.06;23.34;98695.38;4990644;28;20057;-72
2021/07/03 10:25:18;;;;;;;4.35;2.97;;;;;;;37.31;24.12;98689.22;4990135;28;20041;-72
2021/07/03 10:27:55;;;;;;;7.68;3.30;;;;;;;36.90;23.97;98680.66;4989283;28;20026;-72
2021/07/03 10:30:32;;;;;;;4.32;2.92;;;;;;;36.69;24.99;98684.78;4988609;28;20022;-71
2021/07/03 10:33:01;;;;;;;4.28;2.95;;;;;;;36.74;23.76;98675.19;4986477;28;20495;-71
2021/07/03 10:35:27;;;;;;;3.67;3.10;;;;;;;37.57;21.47;98689.13;4992191;28;20042;-71
2021/07/03 10:37:55;;;;;;;3.83;2.85;;;;;;;35.26;24.55;98685.06;4994658;28;20049;-71
2021/07/03 10:40:26;;;;;;;4.13;2.63;;;;;;;35.02;24.56;98686.16;4993275;28;20022;-72
2021/07/03 10:42:53;;;;;;;3.83;2.97;;;;;;;33.46;25.98;98676.28;4974725;28;20381;-72
2021/07/03 10:45:23;;;;;;;4.30;2.70;;;;;;;34.20;24.36;98676.66;4993359;28;20882;-71
2021/07/03 10:47:51;;;;;;;4.32;2.80;;;;;;;34.65;24.07;98666.91;4993475;28;20372;-71
2021/07/03 10:50:19;;;;;;;4.60;3.00;;;;;;;36.05;23.33;98692.97;4994091;28;20030;-72
2021/07/03 10:52:44;;;;;;;3.45;2.83;;;;;;;37.34;21.60;98682.84;4993443;28;20695;-66
2021/07/03 10:55:11;;;;;;;4.22;2.83;;;;;;;35.71;24.73;98680.72;4991883;28;20076;-65
2021/07/03 10:57:44;;;;;;;3.30;2.90;;;;;;;36.99;23.68;98673.50;4987662;28;20038;-66
2021/07/03 11:00:11;;;;;;;7.43;3.00;;;;;;;35.88;24.51;98685.06;4991274;28;20598;-66
2021/07/03 11:02:37;;;;;;;3.70;2.95;;;;;;;36.66;23.78;98671.47;4992521;28;20038;-66
2021/07/03 11:05:14;;;;;;;3.05;2.50;;;;;;;37.55;25.29;98660.50;4991931;28;20038;-66
2021/07/03 11:07:41;;;;;;;4.82;2.90;;;;;;;37.58;24.37;98662.56;4990748;28;20424;-67
2021/07/03 11:10:15;;;;;;;2.75;2.45;;;;;;;38.53;21.39;98657.31;4991859;28;20564;-67
2021/07/03 11:12:48;;;;;;;4.40;2.60;;;;;;;37.75;22.75;98661.09;4992537;28;20495;-66
2021/07/03 11:15:16;;;;;;;3.97;2.58;;;;;;;36.79;23.13;98657.94;4991149;28;20030;-67
2021/07/03 11:17:41;;;;;;;4.05;2.75;;;;;;;36.28;23.89;98650.75;4990810;28;20094;-66
2021/07/03 11:20:08;;;;;;;3.00;2.70;;;;;;;36.47;25.05;98649.00;4992149;28;20138;-67
2021/07/03 11:22:33;;;;;;;7.63;3.10;;;;;;;37.17;23.05;98642.72;4991849;28;20042;-67
2021/07/03 11:25:00;;;;;;;3.55;2.65;;;;;;;37.34;22.67;98652.59;4991914;28;20133;-66